Detalii statie COMAGRA BEREGSAU [00001994]

Toti senzorii

Date Temperatura solului [C]Precipitatii [mm]Voltaj baterie [mV]Leaf Wetness [Min]HC Air temperature [C]HC Relative humidity [%]Punctul de roua [C]
medieminmaxsumaultimatimpmedieminmaxmediemediemin
2019-02-21 01:00:00 3.7 3.5 4 0 6766 -0.59 -1.31 -0.1 100 -0.4 -1.2
2019-02-21 02:00:00 3.4 3.3 3.7 0 6766 -1.78 -2.01 -1.47 100 -1.6 -1.9
2019-02-21 03:00:00 3.1 3 3.3 0 6748 -1.9 -2.38 -1.65 100 -1.7 -2.2
2019-02-21 04:00:00 2.9 2.7 3 0 6756 -1.64 -2.18 -1.01 100 -1.5 -2
2019-02-21 05:00:00 2.6 2.5 2.8 0 6738 -1.86 -2.47 -1.37 100 -1.7 -2.3
2019-02-21 06:00:00 2.4 2.4 2.6 0 6738 -2.78 -3.25 -2.41 100 -2.6 -3.1
2019-02-21 07:00:00 2.2 2.2 2.4 0 6728 -3.09 -3.74 -2.82 100 -2.9 -3.6
2019-02-21 08:00:00 2.1 2.1 2.3 0 6738 -3.65 -4.13 -3.37 100 -3.5 -4
2019-02-21 09:00:00 2 1.9 2.1 0 6816 -2.5 -3.73 -1.36 100 -2.3 -3.6
2019-02-21 10:00:00 1.9 1.7 2.1 0 6914 0.71 -1.36 2.4 100 0.7 -1.2
2019-02-21 11:00:00 1.7 1.7 1.9 0 7060 3.29 2.59 3.99 99.7 3.1 2.5
2019-02-21 12:00:00 1.7 1.6 1.8 0 7196 5.53 4.25 6.67 89.83 3.9 3.4
2019-02-21 13:00:00 1.7 1.6 1.8 0 7196 8.28 6.96 9.36 72.53 3.4 2.8
2019-02-21 14:00:00 2 1.7 2.4 0 7196 10.19 9.25 10.89 63.44 3.4 3
2019-02-21 15:00:00 2.8 2.4 3.3 0 7196 11.54 10.82 12.1 55.23 2.6 1.8
2019-02-21 16:00:00 3.5 3.2 3.9 0 7196 11.87 11.62 12.08 51.98 2.1 1.7
2019-02-21 17:00:00 4.1 3.9 4.3 0 7186 11.35 11.02 11.75 52.81 1.9 1.7
2019-02-21 18:00:00 4.4 4.2 4.6 0 7080 10.14 9.1 11.09 57.77 2 1.7
2019-02-21 19:00:00 4.4 4.3 4.6 0 6952 7.25 5.37 9.06 65.38 1 0.5
2019-02-21 20:00:00 4.3 4.2 4.6 0 6864 6.11 5.68 6.69 70.2 0.9 0.4
2019-02-21 21:00:00 4.1 3.9 4.3 0 6834 5.22 4.31 6.5 72.98 0.6 0.1
2019-02-21 22:00:00 3.8 3.8 4 0 6816 4.09 3.47 4.35 76.34 0.2 0
2019-02-21 23:00:00 3.6 3.6 3.9 0 6796 3.31 2.51 4.07 79.12 0 -0.5
2019-02-22 00:00:00 3.5 3.4 3.7 0 6796 2.91 2.19 3.34 84.69 0.4 -0.1
2019-02-22 01:00:00 3.4 3.3 3.5 0 6776 3.58 3.19 3.82 85.13 1.2 1
2019-02-22 02:00:00 3.3 3.2 3.4 0 6776 3.71 3.48 3.95 89.75 2 1.3
2019-02-22 03:00:00 3.2 3.2 3.3 0 6776 4.62 3.98 5.34 97.76 4.2 3
2019-02-22 04:00:00 3.2 3.2 3.4 0.8 6766 5.7 5.37 5.88 100 5.6 5.3
2019-02-22 05:00:00 3.3 3.2 3.5 1 6766 5.52 5.49 5.63 100 5.4 5.4
2019-02-22 06:00:00 3.4 3.4 3.5 0.8 6766 5.69 5.6 5.74 100 5.6 5.6
2019-02-22 07:00:00 3.5 3.3 3.7 0.8 6756 5.76 5.71 5.83 100 5.7 5.7
2019-02-22 08:00:00 3.6 3.5 3.8 0 6766 5.68 5.55 5.87 100 5.6 5.5
2019-02-22 09:00:00 3.6 3.5 3.8 0 6796 5.88 5.87 5.91 100 5.8 5.8
2019-02-22 10:00:00 3.8 3.7 3.9 0 6972 6.32 5.94 6.94 100 6.2 5.9
2019-02-22 11:00:00 3.9 3.9 4.1 0 7196 7.83 7.03 8.3 100 7.7 7
2019-02-22 12:00:00 4.1 4 4.3 0 7186 8.3 8.06 8.82 100 8.2 8
2019-02-22 13:00:00 4.5 4.4 4.7 0 7186 8.61 8.5 8.83 100 8.5 8.5
2019-02-22 14:00:00 4.8 4.7 5 0.2 7176 8.28 7.87 8.65 100 8.2 7.8
2019-02-22 15:00:00 5.1 5.1 5.3 0 7148 8.19 8.07 8.31 100 8.1 8
2019-02-22 16:00:00 5.2 5.1 5.4 0 7118 7.16 5.34 8.33 100 7.1 5.3
2019-02-22 17:00:00 5.3 5.3 5.5 0 7060 4.36 3.88 4.96 100 4.3 3.8
2019-02-22 18:00:00 5.2 5 5.3 0 6962 3.25 2.73 3.81 100 3.2 2.7
2019-02-22 19:00:00 4.9 4.8 5.1 0 6864 1.22 0.42 2.42 99.8 1.1 0
2019-02-22 20:00:00 4.5 4.3 4.8 0 6796 0.07 -0.43 0.56 92.95 -0.9 -2.1
2019-02-22 21:00:00 4.1 3.9 4.3 0 6796 -1.1 -1.63 -0.49 86.36 -3 -4
2019-02-22 22:00:00 3.7 3.5 3.9 0.2 6776 -2.06 -2.46 -1.69 74.68 -5.9 -6.6
2019-02-22 23:00:00 3.3 3.2 3.5 0 6766 -2.85 -3.23 -2.46 74.22 -6.7 -6.9
2019-02-23 00:00:00 3 2.9 3.2 0 6748 -3.48 -3.62 -3.26 75.99 -7 -7.3